Time;durP1;ratioP1;P1;durP2;ratioP2;P2;SDS_P1;SDS_P2;PMS_P1;PMS_P2;Temp;Humidity;BMP_temperature;BMP_pressure;BME280_temperature;BME280_humidity;BME280_pressure;Samples;Min_cycle;Max_cycle;Signal;HPM_P1;HPM_P2
2019/07/18 00:02:18;;;;;;;21.3;15.6;;;;;;;17.26;80.3584;998.8936;;;;
2019/07/18 00:04:44;;;;;;;20.9;14.9;;;;;;;17.38;79.99609;998.8636;;;;
2019/07/18 00:07:08;;;;;;;20.9;15.7;;;;;;;17.49;79.71289;998.8953;;;;
2019/07/18 00:09:33;;;;;;;19.3;15;;;;;;;17.44;79.80957;998.945;;;;
2019/07/18 00:11:59;;;;;;;21.5;15.6;;;;;;;17.47;79.53516;998.9161;;;;
2019/07/18 00:14:24;;;;;;;20.8;15.5;;;;;;;17.47;79.56934;998.9221;;;;
2019/07/18 00:16:49;;;;;;;19.1;15.5;;;;;;;17.25;79.94824;998.9105;;;;
2019/07/18 00:19:14;;;;;;;21.3;15.7;;;;;;;16.96;80.75586;998.9138;;;;
2019/07/18 00:21:39;;;;;;;19.8;15;;;;;;;16.83;81.13672;998.8694;;;;
2019/07/18 00:24:04;;;;;;;18.9;14.9;;;;;;;16.92;80.78418;998.8794;;;;
2019/07/18 00:26:29;;;;;;;18.4;14.3;;;;;;;17.12;80.00684;998.8134;;;;
2019/07/18 00:28:55;;;;;;;20.5;14.7;;;;;;;17.06;80.14648;998.8496;;;;
2019/07/18 00:31:20;;;;;;;20.2;15;;;;;;;17.12;79.91406;998.7986;;;;
2019/07/18 00:33:45;;;;;;;19.3;14.3;;;;;;;17.11;79.93652;998.848;;;;
2019/07/18 00:36:10;;;;;;;19;14.2;;;;;;;16.96;80.59473;998.8323;;;;
2019/07/18 00:38:35;;;;;;;20.4;15.3;;;;;;;16.83;80.23242;998.8474;;;;
2019/07/18 00:41:00;;;;;;;20.1;15;;;;;;;16.77;78.99023;998.8273;;;;
2019/07/18 00:43:25;;;;;;;19;14.8;;;;;;;16.68;78.80176;998.8652;;;;
2019/07/18 00:45:51;;;;;;;19.1;14.2;;;;;;;16.68;78.88281;998.8242;;;;
2019/07/18 00:48:16;;;;;;;18.9;13.9;;;;;;;16.71;75.9502;998.875;;;;
2019/07/18 00:50:41;;;;;;;19.7;13.8;;;;;;;16.71;76.13574;998.8254;;;;
2019/07/18 00:53:06;;;;;;;18.6;13.3;;;;;;;16.81;74.0957;998.8525;;;;
2019/07/18 00:55:31;;;;;;;17.8;13.7;;;;;;;16.91;75.78516;998.8187;;;;
2019/07/18 00:57:56;;;;;;;16.7;12;;;;;;;16.97;72.64746;998.7994;;;;
2019/07/18 01:00:21;;;;;;;16;12.3;;;;;;;16.93;72.60645;998.7975;;;;
2019/07/18 01:02:46;;;;;;;16.7;11.8;;;;;;;16.91;72.13965;998.7749;;;;
2019/07/18 01:05:11;;;;;;;18.3;12.2;;;;;;;16.86;73.29297;998.8011;;;;
2019/07/18 01:07:37;;;;;;;18;13.4;;;;;;;16.78;73.79102;998.757;;;;
2019/07/18 01:10:02;;;;;;;16.9;12.9;;;;;;;16.77;74.17285;998.7596;;;;
2019/07/18 01:12:27;;;;;;;18.8;13.3;;;;;;;16.71;74.82227;998.7654;;;;
2019/07/18 01:14:52;;;;;;;19.2;13.6;;;;;;;16.74;75.40918;998.7389;;;;
2019/07/18 01:17:17;;;;;;;19.9;13.5;;;;;;;16.73;74.6875;998.7198;;;;
2019/07/18 01:19:42;;;;;;;18.8;13.2;;;;;;;16.77;75.16992;998.7396;;;;
2019/07/18 01:22:08;;;;;;;19.9;13.5;;;;;;;16.77;75.08887;998.7573;;;;
2019/07/18 01:24:33;;;;;;;16;12.5;;;;;;;16.77;73.43945;998.7106;;;;
2019/07/18 01:26:58;;;;;;;16.6;11.8;;;;;;;16.7;72.75391;998.6708;;;;
2019/07/18 01:29:23;;;;;;;17.1;12.5;;;;;;;16.69;73.39258;998.6508;;;;
2019/07/18 01:31:48;;;;;;;18.8;11.8;;;;;;;16.62;72.53125;998.6724;;;;
2019/07/18 01:34:13;;;;;;;15.7;11.6;;;;;;;16.63;73.17285;998.666;;;;
2019/07/18 01:36:38;;;;;;;16.6;10.9;;;;;;;16.65;72.14258;998.6457;;;;
2019/07/18 01:39:03;;;;;;;14.5;11.1;;;;;;;16.6;72.19238;998.6301;;;;
2019/07/18 01:41:29;;;;;;;19.4;10.8;;;;;;;16.47;72.60059;998.6116;;;;
2019/07/18 01:43:53;;;;;;;17.5;11.4;;;;;;;16.4;72.95996;998.6053;;;;
2019/07/18 01:46:18;;;;;;;15;11;;;;;;;16.39;72.88867;998.6102;;;;
2019/07/18 01:48:44;;;;;;;15.4;11.2;;;;;;;16.4;72.90234;998.5842;;;;
2019/07/18 01:51:09;;;;;;;14.8;11.4;;;;;;;16.35;73.34668;998.546;;;;
2019/07/18 01:53:34;;;;;;;16.3;11.5;;;;;;;16.36;73.39453;998.5541;;;;
2019/07/18 01:55:59;;;;;;;18.3;11.4;;;;;;;16.54;73.0752;998.5627;;;;
2019/07/18 01:58:24;;;;;;;16.8;11.2;;;;;;;16.47;72.89063;998.5466;;;;
2019/07/18 02:00:49;;;;;;;14.4;11;;;;;;;16.39;73.8291;998.5203;;;;
2019/07/18 02:03:14;;;;;;;16.6;11.3;;;;;;;16.41;73.85449;998.4558;;;;
2019/07/18 02:05:40;;;;;;;18.7;11.7;;;;;;;16.34;74.16895;998.4661;;;;
2019/07/18 02:08:05;;;;;;;16.1;11.5;;;;;;;16.4;74.03906;998.4805;;;;
2019/07/18 02:10:30;;;;;;;14.6;11.5;;;;;;;16.32;74.31543;998.4439;;;;
2019/07/18 02:12:55;;;;;;;20.1;12.4;;;;;;;16.26;74.69922;998.4669;;;;
2019/07/18 02:15:20;;;;;;;16.6;11.9;;;;;;;16.21;74.80762;998.503;;;;
2019/07/18 02:17:45;;;;;;;21.1;13.2;;;;;;;16.14;75.30566;998.4506;;;;
2019/07/18 02:20:11;;;;;;;16.8;12.2;;;;;;;16.05;75.6377;998.5287;;;;
2019/07/18 02:22:36;;;;;;;18.1;12.5;;;;;;;15.83;76.5625;998.5256;;;;
2019/07/18 02:25:01;;;;;;;16.6;12.3;;;;;;;15.84;76.77246;998.5172;;;;
2019/07/18 02:27:26;;;;;;;18;12.8;;;;;;;15.85;76.82129;998.5524;;;;
2019/07/18 02:29:51;;;;;;;19.6;12.9;;;;;;;15.88;76.59473;998.5486;;;;
2019/07/18 02:32:16;;;;;;;20.2;13.1;;;;;;;15.79;76.97266;998.527;;;;
2019/07/18 02:34:41;;;;;;;19.8;14.2;;;;;;;15.81;76.8252;998.5338;;;;
2019/07/18 02:37:07;;;;;;;18.7;13.6;;;;;;;15.81;77.02246;998.5321;;;;
2019/07/18 02:39:32;;;;;;;18.6;13.4;;;;;;;15.68;77.59082;998.4903;;;;
2019/07/18 02:41:57;;;;;;;22.2;14.5;;;;;;;15.64;78.18555;998.5192;;;;
2019/07/18 02:44:22;;;;;;;18.4;13.3;;;;;;;15.87;77.47266;998.4998;;;;
2019/07/18 02:46:47;;;;;;;19.7;13.8;;;;;;;16.11;76.64453;998.521;;;;
2019/07/18 02:49:12;;;;;;;18.1;13.6;;;;;;;16.22;76.32813;998.4644;;;;
2019/07/18 02:51:37;;;;;;;20.8;15;;;;;;;15.89;77.82324;998.5045;;;;
2019/07/18 02:54:02;;;;;;;22.5;14.9;;;;;;;15.86;78.02734;998.5156;;;;
2019/07/18 02:56:27;;;;;;;19.8;14.6;;;;;;;15.83;78.25586;998.4774;;;;
2019/07/18 02:58:53;;;;;;;22.1;15.5;;;;;;;15.62;79.375;998.4807;;;;
2019/07/18 03:01:18;;;;;;;21.5;14.8;;;;;;;15.48;79.91602;998.5131;;;;
2019/07/18 03:03:43;;;;;;;23.6;14.8;;;;;;;15.5;80.06055;998.4767;;;;
2019/07/18 03:06:08;;;;;;;19.4;14;;;;;;;15.47;80.2041;998.5529;;;;
2019/07/18 03:08:34;;;;;;;20.7;14.9;;;;;;;15.39;80.4209;998.58;;;;
2019/07/18 03:10:58;;;;;;;20.2;14.9;;;;;;;15.34;80.79492;998.6485;;;;
2019/07/18 03:13:24;;;;;;;20.4;15.2;;;;;;;15.19;81.47168;998.6525;;;;
2019/07/18 03:15:49;;;;;;;22.1;15.4;;;;;;;15.11;81.93164;998.6739;;;;
2019/07/18 03:18:14;;;;;;;21.6;15.3;;;;;;;15.02;82.25977;998.71;;;;
2019/07/18 03:20:39;;;;;;;21.4;14.8;;;;;;;14.98;82.46289;998.6552;;;;
2019/07/18 03:23:05;;;;;;;21.5;15.2;;;;;;;15.11;82.17383;998.6926;;;;
2019/07/18 03:25:30;;;;;;;22.5;15;;;;;;;15.2;81.74023;998.6499;;;;
2019/07/18 03:27:55;;;;;;;21.9;15.4;;;;;;;15.22;81.55859;998.6691;;;;
2019/07/18 03:30:20;;;;;;;22.9;16;;;;;;;15.1;81.99707;998.7078;;;;
2019/07/18 03:32:45;;;;;;;21.2;15.4;;;;;;;14.95;82.34082;998.717;;;;
2019/07/18 03:35:11;;;;;;;23.9;16;;;;;;;14.95;82.50195;998.6836;;;;
2019/07/18 03:37:36;;;;;;;25.1;17.2;;;;;;;14.95;82.38672;998.6836;;;;
2019/07/18 03:40:01;;;;;;;24;15.7;;;;;;;15;82.13086;998.7175;;;;
2019/07/18 03:42:27;;;;;;;23.7;15.6;;;;;;;15.04;81.86035;998.7452;;;;
2019/07/18 03:44:52;;;;;;;24;15.9;;;;;;;14.97;82.07813;998.6902;;;;
2019/07/18 03:47:17;;;;;;;26.7;16.9;;;;;;;14.93;82.34863;998.6599;;;;
2019/07/18 03:49:42;;;;;;;23.7;16.2;;;;;;;15;81.72559;998.6459;;;;
2019/07/18 03:52:08;;;;;;;26;17;;;;;;;15.05;81.8252;998.6744;;;;
2019/07/18 03:54:33;;;;;;;25.9;17.2;;;;;;;15.1;81.75488;998.6561;;;;
2019/07/18 03:56:58;;;;;;;24;16.6;;;;;;;15.17;81.6543;998.6959;;;;
2019/07/18 03:59:23;;;;;;;24.1;16.3;;;;;;;15.21;81.42871;998.7394;;;;
2019/07/18 04:02:28;;;;;;;23.7;16;;;;;;;15.31;80.9502;998.7773;;;;
2019/07/18 04:04:53;;;;;;;24.4;16.4;;;;;;;15.32;80.57129;998.7712;;;;
2019/07/18 04:07:18;;;;;;;25.6;16;;;;;;;15.48;79.95117;998.7927;;;;
2019/07/18 04:09:43;;;;;;;22.7;15.7;;;;;;;15.43;80.08008;998.8015;;;;
2019/07/18 04:12:08;;;;;;;24.2;15.8;;;;;;;15.49;79.96387;998.8395;;;;
2019/07/18 04:14:34;;;;;;;25.3;16.2;;;;;;;15.64;79.34375;998.8039;;;;
2019/07/18 04:16:59;;;;;;;24.2;16.2;;;;;;;15.65;79.48438;998.861;;;;
2019/07/18 04:19:24;;;;;;;23.8;15.3;;;;;;;15.64;79.52734;998.8596;;;;
2019/07/18 04:21:49;;;;;;;23.3;15.9;;;;;;;15.78;79.03418;998.7958;;;;
2019/07/18 04:24:14;;;;;;;22;15.1;;;;;;;15.77;79.06738;998.7899;;;;
2019/07/18 04:26:39;;;;;;;21.8;15.4;;;;;;;15.78;79.1709;998.8201;;;;
2019/07/18 04:29:04;;;;;;;22.5;14.9;;;;;;;15.8;79.22266;998.7695;;;;
2019/07/18 04:31:30;;;;;;;22.1;14.6;;;;;;;15.67;79.89453;998.8084;;;;
2019/07/18 04:33:55;;;;;;;20.3;14.8;;;;;;;15.79;79.56641;998.7595;;;;
2019/07/18 04:36:20;;;;;;;19.7;14;;;;;;;16.22;78.04492;998.7917;;;;
2019/07/18 04:38:45;;;;;;;23.1;15;;;;;;;16.12;78.18945;998.7541;;;;
2019/07/18 04:41:10;;;;;;;20.6;14.2;;;;;;;16.5;76.90039;998.6992;;;;
2019/07/18 04:43:35;;;;;;;19.3;14.1;;;;;;;16.77;75.35547;998.6667;;;;
2019/07/18 04:46:00;;;;;;;19.1;13.5;;;;;;;16.56;75.93359;998.6719;;;;
2019/07/18 04:48:25;;;;;;;19.5;13.6;;;;;;;16.83;74.9834;998.6286;;;;
2019/07/18 04:50:50;;;;;;;24.7;13.7;;;;;;;16.86;74.97656;998.6467;;;;
2019/07/18 04:53:15;;;;;;;20.1;13.8;;;;;;;16.82;75.15625;998.5886;;;;
2019/07/18 04:55:40;;;;;;;17;12.9;;;;;;;16.97;74.45996;998.6595;;;;
2019/07/18 04:58:06;;;;;;;16.5;12.8;;;;;;;16.79;75.18555;998.6775;;;;
2019/07/18 05:00:31;;;;;;;20.2;14.1;;;;;;;16.91;75.07813;998.7146;;;;
2019/07/18 05:02:56;;;;;;;18.7;13.5;;;;;;;16.93;75.18555;998.7566;;;;
2019/07/18 05:05:21;;;;;;;20.7;13.8;;;;;;;17.03;74.81934;998.7262;;;;
2019/07/18 05:07:46;;;;;;;21.4;13.7;;;;;;;17.01;75.31641;998.7571;;;;
2019/07/18 05:10:11;;;;;;;21.5;13.7;;;;;;;17.14;74.57227;998.7455;;;;
2019/07/18 05:12:36;;;;;;;22.6;14;;;;;;;17.03;75.28223;998.7944;;;;
2019/07/18 05:15:01;;;;;;;22.6;13.8;;;;;;;17.58;72.94727;998.8086;;;;
2019/07/18 05:17:27;;;;;;;19.4;13.6;;;;;;;17.86;71.41113;998.8542;;;;
2019/07/18 05:19:52;;;;;;;18.4;13.3;;;;;;;18.02;70.81934;998.8228;;;;
2019/07/18 05:22:17;;;;;;;18.8;14;;;;;;;18.2;70.44043;998.8686;;;;
2019/07/18 05:24:42;;;;;;;18.4;13;;;;;;;18.48;69.14453;998.8882;;;;
2019/07/18 05:27:07;;;;;;;19.4;13.4;;;;;;;18.4;68.875;998.8887;;;;
2019/07/18 05:29:32;;;;;;;18.9;13.7;;;;;;;18.98;66.39746;998.9222;;;;
2019/07/18 05:31:57;;;;;;;18;12.3;;;;;;;18.98;66.36426;998.9315;;;;
2019/07/18 05:34:22;;;;;;;18.4;12.5;;;;;;;19.21;65.87207;998.9851;;;;
2019/07/18 05:36:47;;;;;;;18.6;11.8;;;;;;;19.12;65.97559;998.9988;;;;
2019/07/18 05:39:12;;;;;;;15.4;11.3;;;;;;;19.2;66.49023;998.9861;;;;
2019/07/18 05:41:38;;;;;;;15.7;10.7;;;;;;;19.42;65.48242;999;;;;
2019/07/18 05:44:03;;;;;;;15.1;10.9;;;;;;;19.64;65.25781;999.0575;;;;
2019/07/18 05:46:28;;;;;;;17.3;10.6;;;;;;;19.43;65.92969;999.0122;;;;
2019/07/18 05:48:53;;;;;;;14.7;10.2;;;;;;;19.32;66.32031;999.0372;;;;
2019/07/18 05:51:18;;;;;;;15.2;10.3;;;;;;;19.62;64.99902;999.0906;;;;
2019/07/18 05:53:43;;;;;;;15.5;11.1;;;;;;;19.77;64.16699;999.0773;;;;
2019/07/18 05:56:08;;;;;;;16.9;11.4;;;;;;;19.36;65.50977;999.1248;;;;
2019/07/18 05:58:34;;;;;;;15.8;11.6;;;;;;;19.2;64.86719;999.116;;;;
2019/07/18 06:00:59;;;;;;;15;11.4;;;;;;;19.39;64.43848;999.1376;;;;
2019/07/18 06:03:24;;;;;;;14.1;10.8;;;;;;;19.95;62.75391;999.199;;;;
2019/07/18 06:05:49;;;;;;;14.2;11;;;;;;;19.89;63.20313;999.241;;;;
2019/07/18 06:08:14;;;;;;;14.8;10.2;;;;;;;19.82;64.10449;999.2134;;;;
2019/07/18 06:10:40;;;;;;;13;9.4;;;;;;;20.66;61.8125;999.171;;;;
2019/07/18 06:13:05;;;;;;;12.7;8.6;;;;;;;20.38;62.23047;999.187;;;;
2019/07/18 06:15:30;;;;;;;12.2;9.2;;;;;;;20.48;62.13867;999.2136;;;;
2019/07/18 06:17:55;;;;;;;12.6;8.6;;;;;;;20.75;61.18066;999.2072;;;;
2019/07/18 06:20:20;;;;;;;11.8;8.5;;;;;;;20.33;62.31641;999.1742;;;;
2019/07/18 06:22:45;;;;;;;10.6;7.9;;;;;;;21.28;59.42383;999.1627;;;;
2019/07/18 06:25:10;;;;;;;11.7;8.4;;;;;;;21.09;59.5625;999.1357;;;;
2019/07/18 06:27:35;;;;;;;11.5;8.1;;;;;;;21.09;60.14941;999.2492;;;;
2019/07/18 06:30:00;;;;;;;11.3;8.4;;;;;;;21.6;58.21094;999.2048;;;;
2019/07/18 06:32:25;;;;;;;11.8;8.7;;;;;;;20.92;59.96191;999.2637;;;;
2019/07/18 06:34:51;;;;;;;10.4;8.2;;;;;;;20.96;60.34277;999.2963;;;;
2019/07/18 06:37:16;;;;;;;11.3;7.8;;;;;;;21.05;60.81152;999.3297;;;;
2019/07/18 06:39:41;;;;;;;12.4;8.3;;;;;;;21.08;59.7959;999.353;;;;
2019/07/18 06:42:06;;;;;;;12.7;8.7;;;;;;;21.14;59.3584;999.3594;;;;
2019/07/18 06:44:31;;;;;;;10.5;8.1;;;;;;;21.4;58.87695;999.3546;;;;
2019/07/18 06:46:56;;;;;;;13.9;8.2;;;;;;;21.31;59.59277;999.3313;;;;
2019/07/18 06:49:21;;;;;;;11.9;8.2;;;;;;;21.56;58.07617;999.371;;;;
2019/07/18 06:51:46;;;;;;;9.9;7.7;;;;;;;21.84;57.39551;999.4166;;;;
2019/07/18 06:54:12;;;;;;;14.6;7.8;;;;;;;22.35;55.93359;999.4213;;;;
2019/07/18 06:56:37;;;;;;;11.1;8.1;;;;;;;21.76;57.96191;999.4143;;;;
2019/07/18 06:59:02;;;;;;;10.7;7.6;;;;;;;22.36;56.55762;999.4197;;;;
2019/07/18 07:01:27;;;;;;;12.4;8.4;;;;;;;22.81;55.46191;999.443;;;;
2019/07/18 07:03:52;;;;;;;13.5;9.6;;;;;;;22.46;55.06445;999.4749;;;;
2019/07/18 07:06:17;;;;;;;14.3;9.6;;;;;;;22.53;55.01465;999.466;;;;
2019/07/18 07:08:42;;;;;;;14.7;9.9;;;;;;;22.98;53.77539;999.4461;;;;
2019/07/18 07:11:07;;;;;;;14.9;9.4;;;;;;;23.33;52.74512;999.443;;;;
2019/07/18 07:13:32;;;;;;;16.4;9.6;;;;;;;22.91;53.66016;999.4662;;;;
2019/07/18 07:15:57;;;;;;;15.6;9.9;;;;;;;23.23;52.70898;999.4509;;;;
2019/07/18 07:18:23;;;;;;;14.7;9.3;;;;;;;24.53;48.9043;999.4989;;;;
2019/07/18 07:20:48;;;;;;;14.5;9.5;;;;;;;23.96;50.21094;999.4947;;;;
2019/07/18 07:23:13;;;;;;;12.7;9;;;;;;;25.29;47.3291;999.534;;;;
2019/07/18 07:25:38;;;;;;;15.5;9.6;;;;;;;24.76;47.80566;999.5586;;;;
2019/07/18 07:28:03;;;;;;;13.7;9.7;;;;;;;24.16;48.91016;999.5103;;;;
2019/07/18 07:30:28;;;;;;;13.1;9.1;;;;;;;24.46;49.06152;999.6144;;;;
2019/07/18 07:32:53;;;;;;;15.2;9.8;;;;;;;24.61;47.97949;999.579;;;;
2019/07/18 07:35:18;;;;;;;14.6;9.8;;;;;;;25.12;46.54199;999.6196;;;;
2019/07/18 07:37:43;;;;;;;13.9;9.9;;;;;;;24.35;47.50195;999.6158;;;;
2019/07/18 07:40:09;;;;;;;11.7;9.1;;;;;;;25.54;44.95215;999.6074;;;;
2019/07/18 07:42:34;;;;;;;11.5;8.8;;;;;;;25.56;44.97852;999.5779;;;;
2019/07/18 07:44:59;;;;;;;14.3;8.8;;;;;;;25.93;44.29102;999.5625;;;;
2019/07/18 07:47:24;;;;;;;13.6;8.7;;;;;;;26.13;43.18359;999.5895;;;;
2019/07/18 07:49:49;;;;;;;11.8;8.4;;;;;;;26.97;41.6377;999.5508;;;;
2019/07/18 07:52:14;;;;;;;14.9;8.5;;;;;;;26.78;41.72656;999.5656;;;;
2019/07/18 07:54:39;;;;;;;12;8.9;;;;;;;28.26;37.69336;999.562;;;;
2019/07/18 07:57:04;;;;;;;12.5;8.1;;;;;;;27.18;40.37305;999.5438;;;;
2019/07/18 07:59:29;;;;;;;12;8.5;;;;;;;26.75;41.46191;999.5248;;;;
2019/07/18 08:01:54;;;;;;;11.8;8.9;;;;;;;27.52;39.46289;999.5237;;;;
2019/07/18 08:04:20;;;;;;;11.6;8.9;;;;;;;28.99;36.57227;999.5362;;;;
2019/07/18 08:06:45;;;;;;;11.2;8.5;;;;;;;26.76;41.34473;999.5619;;;;
2019/07/18 08:09:10;;;;;;;14.7;9.2;;;;;;;26.97;40.87695;999.582;;;;
2019/07/18 08:11:35;;;;;;;11;8.5;;;;;;;27.06;41.05078;999.5832;;;;
2019/07/18 08:14:00;;;;;;;11.7;9.1;;;;;;;26.77;41.21582;999.6102;;;;
2019/07/18 08:16:30;;;;;;;12;8.7;;;;;;;27.62;39.91309;999.6096;;;;
2019/07/18 08:18:50;;;;;;;12.1;9;;;;;;;28.31;38.25684;999.6622;;;;
2019/07/18 08:21:15;;;;;;;15;8.9;;;;;;;27.91;38.1875;999.6945;;;;
2019/07/18 08:23:41;;;;;;;11.8;9.1;;;;;;;27.57;39.41992;999.6761;;;;
2019/07/18 08:26:06;;;;;;;13.8;10.2;;;;;;;28.64;36.62793;999.7211;;;;
2019/07/18 08:28:32;;;;;;;13.8;10.8;;;;;;;27.33;39.30469;999.6887;;;;
2019/07/18 08:30:57;;;;;;;18.7;10.6;;;;;;;27.66;39.05859;999.6348;;;;
2019/07/18 08:33:22;;;;;;;12.3;10;;;;;;;28.44;37.60156;999.642;;;;
2019/07/18 08:35:47;;;;;;;15.6;10.3;;;;;;;28.01;38.19629;999.6017;;;;
2019/07/18 08:38:12;;;;;;;14.9;11.1;;;;;;;28.38;37.53711;999.6111;;;;
2019/07/18 08:40:37;;;;;;;15.4;10.5;;;;;;;29.05;36.07617;999.5845;;;;
2019/07/18 08:43:02;;;;;;;16.2;11.1;;;;;;;29.22;36.14941;999.5977;;;;
2019/07/18 08:45:27;;;;;;;13.9;11.1;;;;;;;29.06;36.12402;999.6326;;;;
2019/07/18 08:47:52;;;;;;;17.6;11;;;;;;;30.12;34.21094;999.6099;;;;
2019/07/18 08:50:18;;;;;;;13.5;10.4;;;;;;;31.07;32.50879;999.5715;;;;
2019/07/18 08:52:43;;;;;;;17.6;11.6;;;;;;;30.88;32.74609;999.5664;;;;
2019/07/18 08:55:08;;;;;;;14.1;10.2;;;;;;;31.69;31.50879;999.5786;;;;
2019/07/18 08:57:33;;;;;;;14.4;10.6;;;;;;;32.18;30.76074;999.5711;;;;
2019/07/18 08:59:58;;;;;;;12.8;10.4;;;;;;;31.24;32.26855;999.548;;;;
2019/07/18 09:02:23;;;;;;;13.3;9.6;;;;;;;31.84;31.27832;999.6157;;;;
2019/07/18 09:04:48;;;;;;;16.2;10.7;;;;;;;30.76;32.49805;999.5693;;;;
2019/07/18 09:07:13;;;;;;;11.5;9.7;;;;;;;31.84;31.01367;999.5872;;;;
2019/07/18 09:09:38;;;;;;;13.2;9.9;;;;;;;31.63;31.17969;999.5588;;;;
2019/07/18 09:12:03;;;;;;;10.6;9.4;;;;;;;31.78;31.44238;999.5605;;;;
2019/07/18 09:14:29;;;;;;;12.3;9.9;;;;;;;33.21;28.87891;999.5284;;;;
2019/07/18 09:16:54;;;;;;;11.7;9.3;;;;;;;33.23;28.90527;999.5246;;;;
2019/07/18 09:19:19;;;;;;;14.9;9.6;;;;;;;33.24;28.97754;999.5332;;;;
2019/07/18 09:21:44;;;;;;;12.1;9.5;;;;;;;33.34;28.79102;999.5783;;;;
2019/07/18 09:24:09;;;;;;;12.7;9;;;;;;;32.93;29.40234;999.5726;;;;
2019/07/18 09:26:35;;;;;;;11.7;8.6;;;;;;;32.54;28.40332;999.5467;;;;
2019/07/18 09:29:00;;;;;;;14.8;9.6;;;;;;;32.52;28.77539;999.5172;;;;
2019/07/18 09:31:25;;;;;;;12.6;9.3;;;;;;;32.82;28.90234;999.5073;;;;
2019/07/18 09:33:50;;;;;;;10.5;9.2;;;;;;;32.13;28.91895;999.5073;;;;
2019/07/18 09:36:15;;;;;;;10.1;9;;;;;;;31.97;29.35254;999.4498;;;;
2019/07/18 09:38:40;;;;;;;12.5;9.1;;;;;;;31.81;30.49512;999.4573;;;;
2019/07/18 09:41:06;;;;;;;11.7;9.1;;;;;;;32.3;29.5791;999.4328;;;;
2019/07/18 09:43:31;;;;;;;12.3;8.8;;;;;;;33.03;28.20508;999.391;;;;
2019/07/18 09:45:56;;;;;;;10.6;9;;;;;;;31.79;29.77344;999.397;;;;
2019/07/18 09:48:21;;;;;;;11;9.1;;;;;;;31.98;30.11035;999.433;;;;
2019/07/18 09:50:46;;;;;;;13.8;8.8;;;;;;;32.58;29.72852;999.3757;;;;
2019/07/18 09:53:11;;;;;;;12.1;8.8;;;;;;;32.25;29.82813;999.3244;;;;
2019/07/18 09:55:36;;;;;;;10.9;8.5;;;;;;;32.82;28.87891;999.3628;;;;
2019/07/18 09:58:01;;;;;;;9.6;8.6;;;;;;;32.44;29.40723;999.3125;;;;
2019/07/18 10:00:26;;;;;;;9.2;8.2;;;;;;;32.73;28.77637;999.3511;;;;
2019/07/18 10:02:51;;;;;;;12;7.8;;;;;;;34.19;27.23828;999.3483;;;;
2019/07/18 10:05:17;;;;;;;10.1;8;;;;;;;32.53;29.60547;999.3251;;;;
2019/07/18 10:07:42;;;;;;;12.1;8.7;;;;;;;32.04;30.4873;999.3622;;;;
2019/07/18 10:10:07;;;;;;;11.7;8.7;;;;;;;32.57;29.75293;999.3367;;;;
2019/07/18 10:12:32;;;;;;;10.6;9.2;;;;;;;31.25;31.89746;999.3695;;;;
2019/07/18 10:14:57;;;;;;;9.9;8.2;;;;;;;32.17;30.4834;999.4196;;;;
2019/07/18 10:17:22;;;;;;;10.1;8.1;;;;;;;32.27;30.32227;999.4092;;;;
2019/07/18 10:19:47;;;;;;;11.1;8.3;;;;;;;31.88;30.89648;999.3605;;;;
2019/07/18 10:22:13;;;;;;;11.8;7.9;;;;;;;32.57;29.69238;999.4041;;;;
2019/07/18 10:24:38;;;;;;;11;8;;;;;;;31.75;30.68359;999.3636;;;;
2019/07/18 10:27:03;;;;;;;9.7;7.8;;;;;;;32.82;28.95117;999.3733;;;;
2019/07/18 10:29:28;;;;;;;8.9;7.8;;;;;;;32.41;29.27344;999.4129;;;;
2019/07/18 10:31:53;;;;;;;9.3;7.8;;;;;;;31.61;30.32617;999.3872;;;;
2019/07/18 10:34:18;;;;;;;10.1;7.9;;;;;;;31.97;30.30176;999.326;;;;
2019/07/18 10:36:43;;;;;;;9.3;7.8;;;;;;;31.49;30.41406;999.399;;;;
2019/07/18 10:39:08;;;;;;;9.8;7.6;;;;;;;31.88;30.2002;999.3596;;;;
2019/07/18 10:41:33;;;;;;;11.1;8;;;;;;;32.38;29.58398;999.3065;;;;
2019/07/18 10:43:58;;;;;;;9.9;8;;;;;;;32.24;29.68262;999.296;;;;
2019/07/18 10:46:23;;;;;;;9.6;8;;;;;;;31.27;31.6709;999.2378;;;;
2019/07/18 10:48:48;;;;;;;10.3;7.7;;;;;;;29.53;33.67773;999.2695;;;;
2019/07/18 10:51:13;;;;;;;9.2;7.8;;;;;;;29.67;33.50781;999.218;;;;
2019/07/18 10:53:38;;;;;;;7.9;7.1;;;;;;;29.6;33.19238;999.1884;;;;
2019/07/18 10:56:04;;;;;;;8.5;6.7;;;;;;;29.5;32.94531;999.1755;;;;
2019/07/18 10:58:29;;;;;;;9.6;6.9;;;;;;;29.49;32.87305;999.171;;;;
2019/07/18 11:00:54;;;;;;;10.4;6.5;;;;;;;29.66;32.25195;999.228;;;;
2019/07/18 11:03:19;;;;;;;11.1;6.8;;;;;;;29.03;33.1377;999.2132;;;;
2019/07/18 11:05:44;;;;;;;8.2;7.1;;;;;;;28.73;34.47559;999.2114;;;;
2019/07/18 11:08:09;;;;;;;8.4;7.4;;;;;;;29.05;35.0498;999.1965;;;;
2019/07/18 11:10:35;;;;;;;10.4;7;;;;;;;29.28;34.41113;999.2188;;;;
2019/07/18 11:13:00;;;;;;;7.5;6.7;;;;;;;29.46;32.69141;999.2547;;;;
2019/07/18 11:15:25;;;;;;;8;6.8;;;;;;;28.97;33.52734;999.1791;;;;
2019/07/18 11:17:50;;;;;;;8.7;6.9;;;;;;;29.12;33.62207;999.1451;;;;
2019/07/18 11:20:15;;;;;;;7.6;6.6;;;;;;;29.3;33.51563;999.1272;;;;
2019/07/18 11:22:40;;;;;;;8.8;6.7;;;;;;;29.4;33.15332;999.1244;;;;
2019/07/18 11:25:05;;;;;;;9;6.6;;;;;;;29.19;33.77051;999.0263;;;;
2019/07/18 11:27:31;;;;;;;8.4;6.4;;;;;;;29.56;32.77148;999.0184;;;;
2019/07/18 11:29:55;;;;;;;8.1;6.4;;;;;;;29.94;33.37305;998.9742;;;;
2019/07/18 11:32:20;;;;;;;7.3;6.5;;;;;;;30.03;32.40918;998.9403;;;;
2019/07/18 11:34:45;;;;;;;8.9;7;;;;;;;29.63;32.99121;998.9214;;;;
2019/07/18 11:37:11;;;;;;;8.5;6.4;;;;;;;30.28;33.22949;998.8837;;;;
2019/07/18 11:39:36;;;;;;;8.2;7.2;;;;;;;29.34;34.30762;999.008;;;;
2019/07/18 11:42:01;;;;;;;9.7;6.9;;;;;;;29.61;33.74219;998.9464;;;;
2019/07/18 11:44:26;;;;;;;7.9;6.9;;;;;;;29.76;33.74219;998.879;;;;
2019/07/18 11:46:52;;;;;;;7.8;6.2;;;;;;;29.76;32.84473;998.8406;;;;
2019/07/18 11:49:16;;;;;;;9.2;6.2;;;;;;;29.88;32.43457;998.8281;;;;
2019/07/18 11:51:41;;;;;;;8.1;6.2;;;;;;;29.6;32.10352;998.8736;;;;
2019/07/18 11:54:07;;;;;;;8.3;6.3;;;;;;;29.46;33.05078;998.832;;;;
2019/07/18 11:56:32;;;;;;;9.1;6.5;;;;;;;29.48;33.3623;998.8362;;;;
2019/07/18 11:58:57;;;;;;;8.4;6.6;;;;;;;29.91;32.4375;998.7944;;;;
2019/07/18 12:01:22;;;;;;;9.5;6.8;;;;;;;30.21;32.25488;998.7766;;;;
2019/07/18 12:03:47;;;;;;;7.2;6.1;;;;;;;29.81;32.38184;998.7234;;;;
2019/07/18 12:06:12;;;;;;;7.1;5.3;;;;;;;29.6;31.33887;998.8101;;;;
2019/07/18 12:08:37;;;;;;;6.3;5.2;;;;;;;29.31;30.56641;998.7144;;;;
2019/07/18 12:11:02;;;;;;;8.5;5.5;;;;;;;29.72;30.82129;998.7047;;;;
2019/07/18 12:13:27;;;;;;;7.5;5.6;;;;;;;29.98;31.60449;998.6314;;;;
2019/07/18 12:15:52;;;;;;;9.5;6.1;;;;;;;29.85;32.22949;998.6731;;;;
2019/07/18 12:18:17;;;;;;;6.5;5.3;;;;;;;29.68;31.36816;998.7125;;;;
2019/07/18 12:20:43;;;;;;;6.2;5.2;;;;;;;29.67;30.16113;998.7411;;;;
2019/07/18 12:23:08;;;;;;;5.7;4.9;;;;;;;29.58;30.77539;998.6774;;;;
2019/07/18 12:25:33;;;;;;;6;5.2;;;;;;;29.25;30.66992;998.6703;;;;
2019/07/18 12:27:58;;;;;;;7;4.7;;;;;;;29.66;29.29883;998.6266;;;;
2019/07/18 12:30:23;;;;;;;6;4.9;;;;;;;29.94;29.43652;998.6458;;;;
2019/07/18 12:32:48;;;;;;;6.3;5.1;;;;;;;30.59;28.77246;998.5923;;;;
2019/07/18 12:35:13;;;;;;;5.8;5;;;;;;;29.87;29.34863;998.5789;;;;
2019/07/18 12:37:38;;;;;;;6;4.9;;;;;;;30.15;29.96582;998.6264;;;;
2019/07/18 12:40:03;;;;;;;5.7;5.1;;;;;;;30.58;29.71875;998.6481;;;;
2019/07/18 12:42:28;;;;;;;6.7;5.4;;;;;;;30.87;29.3291;998.6414;;;;
2019/07/18 12:44:54;;;;;;;9.6;6.2;;;;;;;30.15;30.80273;998.5948;;;;
2019/07/18 12:47:19;;;;;;;6.3;5.3;;;;;;;29.88;30.91602;998.5415;;;;
2019/07/18 12:49:44;;;;;;;8.3;5.6;;;;;;;30.53;30.5293;998.5037;;;;
2019/07/18 12:52:09;;;;;;;6.9;5.1;;;;;;;30.36;29.8125;998.4554;;;;
2019/07/18 12:54:34;;;;;;;7.5;5.4;;;;;;;29.58;30.51367;998.6453;;;;
2019/07/18 12:57:00;;;;;;;6.4;5.1;;;;;;;30.11;30.39355;998.5452;;;;
2019/07/18 12:59:26;;;;;;;6.7;5.1;;;;;;;30.11;30.32129;998.5067;;;;
2019/07/18 13:01:50;;;;;;;6.8;5.1;;;;;;;30.31;30.50293;998.5504;;;;
2019/07/18 13:04:16;;;;;;;6.9;5;;;;;;;30.22;30.5918;998.5297;;;;
2019/07/18 13:06:41;;;;;;;6.1;5.1;;;;;;;30.32;30.44336;998.4773;;;;
2019/07/18 13:09:06;;;;;;;6;5.4;;;;;;;30.15;30.17969;998.4709;;;;
2019/07/18 13:11:31;;;;;;;5.9;5.3;;;;;;;29.92;31.08594;998.4783;;;;
2019/07/18 13:13:56;;;;;;;6.4;5.2;;;;;;;30.24;30.42578;998.4391;;;;
2019/07/18 13:16:21;;;;;;;7.1;5.3;;;;;;;29.92;30.82324;998.4282;;;;
2019/07/18 13:18:46;;;;;;;9.2;5.9;;;;;;;30.59;30.09082;998.4355;;;;
2019/07/18 13:21:11;;;;;;;7.3;5.6;;;;;;;31.34;29.13184;998.3809;;;;
2019/07/18 13:23:36;;;;;;;8.4;5.4;;;;;;;30.89;29.03125;998.457;;;;
2019/07/18 13:26:02;;;;;;;5.6;5.1;;;;;;;30.82;29.51855;998.5129;;;;
2019/07/18 13:28:27;;;;;;;6.4;4.9;;;;;;;31.15;29.13184;998.4459;;;;
2019/07/18 13:30:52;;;;;;;8.1;5.3;;;;;;;30.81;28.96582;998.4464;;;;
2019/07/18 13:33:17;;;;;;;6.3;5.1;;;;;;;30.62;29.69727;998.3537;;;;
2019/07/18 13:35:42;;;;;;;5.8;4.9;;;;;;;30.91;29.26074;998.3984;;;;
2019/07/18 13:38:07;;;;;;;8;5.1;;;;;;;30.94;29.80176;998.3369;;;;
2019/07/18 13:40:33;;;;;;;7.6;4.8;;;;;;;30.87;29.49805;998.2724;;;;
2019/07/18 13:42:58;;;;;;;6.9;5;;;;;;;30.78;29.49219;998.2192;;;;
2019/07/18 13:45:23;;;;;;;7.6;5.1;;;;;;;30.56;30.13574;998.2537;;;;
2019/07/18 13:47:48;;;;;;;7.1;5.3;;;;;;;30.24;30.52148;998.2403;;;;
2019/07/18 13:50:13;;;;;;;6.5;4.9;;;;;;;30.05;30.77246;998.239;;;;
2019/07/18 13:52:38;;;;;;;9.3;5.4;;;;;;;29.88;30.96387;998.2133;;;;
2019/07/18 13:55:03;;;;;;;6.7;5.1;;;;;;;29.82;31.00781;998.2283;;;;
2019/07/18 13:57:28;;;;;;;6.4;4.9;;;;;;;29.91;30.77441;998.2391;;;;
2019/07/18 13:59:54;;;;;;;8.8;4.8;;;;;;;30.23;30.72461;998.1503;;;;